Terminal Aerodrome Forecast
Issued by NWS

Home | Current Version | Previous Version | Text Only | Print | Product List | Glossary On
Versions: 1 2 3 4 5 6 7 8 9 10 11 12 13 14 15 16 17 18 19 20 21 22 23 24 25 26
000
FTUS44 KLIX 280532
TAFGPT
TAF
KGPT 280532Z 2806/2906 07010KT P6SM -RA BKN007 BKN110
     FM280800 12010KT P6SM BKN006
     FM281500 15007KT P6SM SCT005 BKN050
     FM281900 32010KT P6SM BKN025
     FM290200 33012G18KT P6SM BKN020=

USA.gov is the U.S. government's official web portal to all federal, state and local government web resources and services.